sensor_id;sensor_type;location;lat;lon;timestamp;temperature;humidity
5041;DHT22;2539;52.568;13.364;2022-07-23T00:00:47;18.30;99.90
5041;DHT22;2539;52.568;13.364;2022-07-23T00:03:13;18.30;99.90
5041;DHT22;2539;52.568;13.364;2022-07-23T00:05:40;18.20;99.90
5041;DHT22;2539;52.568;13.364;2022-07-23T00:08:07;18.20;99.90
5041;DHT22;2539;52.568;13.364;2022-07-23T00:10:33;18.10;99.90
5041;DHT22;2539;52.568;13.364;2022-07-23T00:12:59;18.10;99.90
5041;DHT22;2539;52.568;13.364;2022-07-23T00:15:26;18.10;99.90
5041;DHT22;2539;52.568;13.364;2022-07-23T00:17:52;18.10;99.90
5041;DHT22;2539;52.568;13.364;2022-07-23T00:20:18;18.10;99.90
5041;DHT22;2539;52.568;13.364;2022-07-23T00:22:49;18.00;99.90
5041;DHT22;2539;52.568;13.364;2022-07-23T00:25:15;18.10;99.90
5041;DHT22;2539;52.568;13.364;2022-07-23T00:27:42;18.10;99.90
5041;DHT22;2539;52.568;13.364;2022-07-23T00:30:09;18.10;99.90
5041;DHT22;2539;52.568;13.364;2022-07-23T00:32:56;18.10;99.90
5041;DHT22;2539;52.568;13.364;2022-07-23T00:35:25;18.10;99.90
5041;DHT22;2539;52.568;13.364;2022-07-23T00:37:53;18.00;99.90
5041;DHT22;2539;52.568;13.364;2022-07-23T00:40:19;18.10;99.90
5041;DHT22;2539;52.568;13.364;2022-07-23T00:42:45;18.10;99.90
5041;DHT22;2539;52.568;13.364;2022-07-23T00:45:12;18.10;99.90
5041;DHT22;2539;52.568;13.364;2022-07-23T00:47:38;18.10;99.90
5041;DHT22;2539;52.568;13.364;2022-07-23T00:50:07;18.10;99.90
5041;DHT22;2539;52.568;13.364;2022-07-23T00:52:34;18.00;99.90
5041;DHT22;2539;52.568;13.364;2022-07-23T00:55:01;18.00;99.90
5041;DHT22;2539;52.568;13.364;2022-07-23T00:57:27;17.90;99.90
5041;DHT22;2539;52.568;13.364;2022-07-23T00:59:52;17.90;99.90
5041;DHT22;2539;52.568;13.364;2022-07-23T01:02:18;17.90;99.90
5041;DHT22;2539;52.568;13.364;2022-07-23T01:04:45;17.80;99.90
5041;DHT22;2539;52.568;13.364;2022-07-23T01:07:11;17.80;99.90
5041;DHT22;2539;52.568;13.364;2022-07-23T01:09:37;17.80;99.90
5041;DHT22;2539;52.568;13.364;2022-07-23T01:12:04;17.80;99.90
5041;DHT22;2539;52.568;13.364;2022-07-23T01:14:31;17.70;99.90
5041;DHT22;2539;52.568;13.364;2022-07-23T01:16:57;17.70;99.90
5041;DHT22;2539;52.568;13.364;2022-07-23T01:19:23;17.70;99.90
5041;DHT22;2539;52.568;13.364;2022-07-23T01:21:51;17.70;99.90
5041;DHT22;2539;52.568;13.364;2022-07-23T01:24:18;17.60;99.90
5041;DHT22;2539;52.568;13.364;2022-07-23T01:26:48;17.60;99.90
5041;DHT22;2539;52.568;13.364;2022-07-23T01:29:16;17.50;99.90
5041;DHT22;2539;52.568;13.364;2022-07-23T01:31:43;17.50;99.90
5041;DHT22;2539;52.568;13.364;2022-07-23T01:34:09;17.50;99.90
5041;DHT22;2539;52.568;13.364;2022-07-23T01:36:36;17.40;99.90
5041;DHT22;2539;52.568;13.364;2022-07-23T01:39:04;17.40;99.90
5041;DHT22;2539;52.568;13.364;2022-07-23T01:41:31;17.40;99.90
5041;DHT22;2539;52.568;13.364;2022-07-23T01:43:57;17.40;99.90
5041;DHT22;2539;52.568;13.364;2022-07-23T01:46:24;17.30;99.90
5041;DHT22;2539;52.568;13.364;2022-07-23T01:48:50;17.20;99.90
5041;DHT22;2539;52.568;13.364;2022-07-23T01:51:16;17.20;99.90
5041;DHT22;2539;52.568;13.364;2022-07-23T01:53:43;17.20;99.90
5041;DHT22;2539;52.568;13.364;2022-07-23T01:56:09;17.10;99.90
5041;DHT22;2539;52.568;13.364;2022-07-23T01:58:35;17.10;99.90
5041;DHT22;2539;52.568;13.364;2022-07-23T02:01:01;17.00;99.90
5041;DHT22;2539;52.568;13.364;2022-07-23T02:03:28;17.00;99.90
5041;DHT22;2539;52.568;13.364;2022-07-23T02:05:54;17.10;99.90
5041;DHT22;2539;52.568;13.364;2022-07-23T02:08:20;17.10;99.90
5041;DHT22;2539;52.568;13.364;2022-07-23T02:10:46;17.10;99.90
5041;DHT22;2539;52.568;13.364;2022-07-23T02:13:13;17.20;99.90
5041;DHT22;2539;52.568;13.364;2022-07-23T02:15:39;17.20;99.90
5041;DHT22;2539;52.568;13.364;2022-07-23T02:18:05;17.20;99.90
5041;DHT22;2539;52.568;13.364;2022-07-23T02:20:32;17.10;99.90
5041;DHT22;2539;52.568;13.364;2022-07-23T02:22:58;17.10;99.90
5041;DHT22;2539;52.568;13.364;2022-07-23T02:25:24;17.20;99.90
5041;DHT22;2539;52.568;13.364;2022-07-23T02:27:50;17.20;99.90
5041;DHT22;2539;52.568;13.364;2022-07-23T02:30:16;17.20;99.90
5041;DHT22;2539;52.568;13.364;2022-07-23T02:32:43;17.20;99.90
5041;DHT22;2539;52.568;13.364;2022-07-23T02:35:09;17.10;99.90
5041;DHT22;2539;52.568;13.364;2022-07-23T02:37:35;17.10;99.90
5041;DHT22;2539;52.568;13.364;2022-07-23T02:40:01;17.20;99.90
5041;DHT22;2539;52.568;13.364;2022-07-23T02:42:28;17.10;99.90
5041;DHT22;2539;52.568;13.364;2022-07-23T02:44:54;17.00;99.90
5041;DHT22;2539;52.568;13.364;2022-07-23T02:47:20;17.00;99.90
5041;DHT22;2539;52.568;13.364;2022-07-23T02:49:46;17.00;99.90
5041;DHT22;2539;52.568;13.364;2022-07-23T02:52:12;16.90;99.90
5041;DHT22;2539;52.568;13.364;2022-07-23T02:54:39;16.70;99.90
5041;DHT22;2539;52.568;13.364;2022-07-23T02:57:05;16.70;99.90
5041;DHT22;2539;52.568;13.364;2022-07-23T02:59:31;16.60;99.90
5041;DHT22;2539;52.568;13.364;2022-07-23T03:01:57;16.60;99.90
5041;DHT22;2539;52.568;13.364;2022-07-23T03:04:23;16.50;99.90
5041;DHT22;2539;52.568;13.364;2022-07-23T03:06:50;16.50;99.90
5041;DHT22;2539;52.568;13.364;2022-07-23T03:09:16;16.40;99.90
5041;DHT22;2539;52.568;13.364;2022-07-23T03:11:42;16.40;99.90
5041;DHT22;2539;52.568;13.364;2022-07-23T03:14:08;16.40;99.90
5041;DHT22;2539;52.568;13.364;2022-07-23T03:16:34;16.40;99.90
5041;DHT22;2539;52.568;13.364;2022-07-23T03:19:00;16.40;99.90
5041;DHT22;2539;52.568;13.364;2022-07-23T03:21:27;16.40;99.90
5041;DHT22;2539;52.568;13.364;2022-07-23T03:23:53;16.40;99.90
5041;DHT22;2539;52.568;13.364;2022-07-23T03:26:19;16.30;99.90
5041;DHT22;2539;52.568;13.364;2022-07-23T03:28:45;16.30;99.90
5041;DHT22;2539;52.568;13.364;2022-07-23T03:31:12;16.40;99.90
5041;DHT22;2539;52.568;13.364;2022-07-23T03:33:38;16.40;99.90
5041;DHT22;2539;52.568;13.364;2022-07-23T03:36:04;16.40;99.90
5041;DHT22;2539;52.568;13.364;2022-07-23T03:38:30;16.40;99.90
5041;DHT22;2539;52.568;13.364;2022-07-23T03:40:57;16.40;99.90
5041;DHT22;2539;52.568;13.364;2022-07-23T03:43:23;16.40;99.90
5041;DHT22;2539;52.568;13.364;2022-07-23T03:45:51;16.50;99.90
5041;DHT22;2539;52.568;13.364;2022-07-23T03:48:16;16.60;99.90
5041;DHT22;2539;52.568;13.364;2022-07-23T03:50:42;16.60;99.90
5041;DHT22;2539;52.568;13.364;2022-07-23T03:53:08;16.60;99.90
5041;DHT22;2539;52.568;13.364;2022-07-23T03:55:34;16.70;99.90
5041;DHT22;2539;52.568;13.364;2022-07-23T03:58:00;16.70;99.90
5041;DHT22;2539;52.568;13.364;2022-07-23T04:00:27;16.80;99.90
5041;DHT22;2539;52.568;13.364;2022-07-23T04:02:53;16.80;99.90
5041;DHT22;2539;52.568;13.364;2022-07-23T04:05:19;16.80;99.90
5041;DHT22;2539;52.568;13.364;2022-07-23T04:07:45;16.80;99.90
5041;DHT22;2539;52.568;13.364;2022-07-23T04:10:12;16.80;99.90
5041;DHT22;2539;52.568;13.364;2022-07-23T04:12:38;16.80;99.90
5041;DHT22;2539;52.568;13.364;2022-07-23T04:15:07;16.90;99.90
5041;DHT22;2539;52.568;13.364;2022-07-23T04:17:33;16.90;99.90
5041;DHT22;2539;52.568;13.364;2022-07-23T04:19:58;16.80;99.90
5041;DHT22;2539;52.568;13.364;2022-07-23T04:22:24;16.70;99.90
5041;DHT22;2539;52.568;13.364;2022-07-23T04:24:50;16.60;99.90
5041;DHT22;2539;52.568;13.364;2022-07-23T04:27:16;16.40;99.90
5041;DHT22;2539;52.568;13.364;2022-07-23T04:29:42;16.20;99.90
5041;DHT22;2539;52.568;13.364;2022-07-23T04:32:08;15.90;99.90
5041;DHT22;2539;52.568;13.364;2022-07-23T04:34:35;15.60;99.90
5041;DHT22;2539;52.568;13.364;2022-07-23T04:37:01;15.30;99.90
5041;DHT22;2539;52.568;13.364;2022-07-23T04:39:27;15.10;99.90
5041;DHT22;2539;52.568;13.364;2022-07-23T04:41:53;14.50;99.90
5041;DHT22;2539;52.568;13.364;2022-07-23T04:44:19;14.20;99.90
5041;DHT22;2539;52.568;13.364;2022-07-23T04:46:46;14.30;99.90
5041;DHT22;2539;52.568;13.364;2022-07-23T04:49:12;14.20;99.90
5041;DHT22;2539;52.568;13.364;2022-07-23T04:51:38;14.30;99.90
5041;DHT22;2539;52.568;13.364;2022-07-23T04:54:04;14.40;99.90
5041;DHT22;2539;52.568;13.364;2022-07-23T04:56:31;14.30;99.90
5041;DHT22;2539;52.568;13.364;2022-07-23T04:58:57;14.20;99.90
5041;DHT22;2539;52.568;13.364;2022-07-23T05:01:23;14.30;99.90
5041;DHT22;2539;52.568;13.364;2022-07-23T05:03:49;14.20;99.90
5041;DHT22;2539;52.568;13.364;2022-07-23T05:06:16;14.40;99.90
5041;DHT22;2539;52.568;13.364;2022-07-23T05:08:41;14.50;99.90
5041;DHT22;2539;52.568;13.364;2022-07-23T05:11:07;14.40;99.90
5041;DHT22;2539;52.568;13.364;2022-07-23T05:13:33;14.50;99.90
5041;DHT22;2539;52.568;13.364;2022-07-23T05:15:58;14.40;99.90
5041;DHT22;2539;52.568;13.364;2022-07-23T05:18:25;14.50;99.90
5041;DHT22;2539;52.568;13.364;2022-07-23T05:20:51;14.50;99.90
5041;DHT22;2539;52.568;13.364;2022-07-23T05:23:17;14.40;99.90
5041;DHT22;2539;52.568;13.364;2022-07-23T05:25:43;14.30;99.90
5041;DHT22;2539;52.568;13.364;2022-07-23T05:28:10;14.20;99.90
5041;DHT22;2539;52.568;13.364;2022-07-23T05:30:36;14.30;99.90
5041;DHT22;2539;52.568;13.364;2022-07-23T05:33:02;14.20;99.90
5041;DHT22;2539;52.568;13.364;2022-07-23T05:35:28;14.30;99.90
5041;DHT22;2539;52.568;13.364;2022-07-23T05:37:54;14.50;99.90
5041;DHT22;2539;52.568;13.364;2022-07-23T05:40:21;14.50;99.90
5041;DHT22;2539;52.568;13.364;2022-07-23T05:42:47;14.40;99.90
5041;DHT22;2539;52.568;13.364;2022-07-23T05:45:13;14.50;99.90
5041;DHT22;2539;52.568;13.364;2022-07-23T05:47:41;14.60;99.90
5041;DHT22;2539;52.568;13.364;2022-07-23T05:50:09;14.80;99.90
5041;DHT22;2539;52.568;13.364;2022-07-23T05:52:35;14.90;99.90
5041;DHT22;2539;52.568;13.364;2022-07-23T05:55:02;15.00;99.90
5041;DHT22;2539;52.568;13.364;2022-07-23T05:57:29;15.10;99.90
5041;DHT22;2539;52.568;13.364;2022-07-23T05:59:55;15.00;99.90
5041;DHT22;2539;52.568;13.364;2022-07-23T06:02:21;15.00;99.90
5041;DHT22;2539;52.568;13.364;2022-07-23T06:04:47;15.00;99.90
5041;DHT22;2539;52.568;13.364;2022-07-23T06:07:13;15.00;99.90
5041;DHT22;2539;52.568;13.364;2022-07-23T06:09:40;15.00;99.90
5041;DHT22;2539;52.568;13.364;2022-07-23T06:12:06;15.00;99.90
5041;DHT22;2539;52.568;13.364;2022-07-23T06:14:33;15.00;99.90
5041;DHT22;2539;52.568;13.364;2022-07-23T06:16:59;15.10;99.90
5041;DHT22;2539;52.568;13.364;2022-07-23T06:19:25;15.10;99.90
5041;DHT22;2539;52.568;13.364;2022-07-23T06:21:52;15.10;99.90
5041;DHT22;2539;52.568;13.364;2022-07-23T06:24:18;15.10;99.90
5041;DHT22;2539;52.568;13.364;2022-07-23T06:26:44;15.20;99.90
5041;DHT22;2539;52.568;13.364;2022-07-23T06:29:11;15.30;99.90
5041;DHT22;2539;52.568;13.364;2022-07-23T06:31:37;15.30;99.90
5041;DHT22;2539;52.568;13.364;2022-07-23T06:34:03;15.40;99.90
5041;DHT22;2539;52.568;13.364;2022-07-23T06:36:29;15.40;99.90
5041;DHT22;2539;52.568;13.364;2022-07-23T06:38:56;15.50;99.90
5041;DHT22;2539;52.568;13.364;2022-07-23T06:41:22;15.50;99.90
5041;DHT22;2539;52.568;13.364;2022-07-23T06:43:51;15.40;99.90
5041;DHT22;2539;52.568;13.364;2022-07-23T06:46:17;15.40;99.90
5041;DHT22;2539;52.568;13.364;2022-07-23T06:48:43;15.50;99.90
5041;DHT22;2539;52.568;13.364;2022-07-23T06:51:09;15.50;99.90
5041;DHT22;2539;52.568;13.364;2022-07-23T06:53:36;15.50;99.90
5041;DHT22;2539;52.568;13.364;2022-07-23T06:56:02;15.40;99.90
5041;DHT22;2539;52.568;13.364;2022-07-23T06:58:28;15.10;99.90
5041;DHT22;2539;52.568;13.364;2022-07-23T07:00:55;14.90;99.90
5041;DHT22;2539;52.568;13.364;2022-07-23T07:03:23;14.90;99.90
5041;DHT22;2539;52.568;13.364;2022-07-23T07:05:49;14.70;99.90
5041;DHT22;2539;52.568;13.364;2022-07-23T07:08:15;14.70;99.90
5041;DHT22;2539;52.568;13.364;2022-07-23T07:10:42;14.70;99.90
5041;DHT22;2539;52.568;13.364;2022-07-23T07:13:07;14.80;99.90
5041;DHT22;2539;52.568;13.364;2022-07-23T07:15:33;15.00;99.90
5041;DHT22;2539;52.568;13.364;2022-07-23T07:17:59;15.30;99.90
5041;DHT22;2539;52.568;13.364;2022-07-23T07:20:24;15.50;99.90
5041;DHT22;2539;52.568;13.364;2022-07-23T07:22:51;15.50;99.90
5041;DHT22;2539;52.568;13.364;2022-07-23T07:25:17;15.50;99.90
5041;DHT22;2539;52.568;13.364;2022-07-23T07:27:43;15.70;99.90
5041;DHT22;2539;52.568;13.364;2022-07-23T07:30:11;15.90;99.90
5041;DHT22;2539;52.568;13.364;2022-07-23T07:32:38;16.10;99.90
5041;DHT22;2539;52.568;13.364;2022-07-23T07:35:05;16.20;99.90
5041;DHT22;2539;52.568;13.364;2022-07-23T07:37:32;16.10;99.90
5041;DHT22;2539;52.568;13.364;2022-07-23T07:39:58;16.00;99.90
5041;DHT22;2539;52.568;13.364;2022-07-23T07:42:24;16.10;99.90
5041;DHT22;2539;52.568;13.364;2022-07-23T07:44:50;16.20;99.90
5041;DHT22;2539;52.568;13.364;2022-07-23T07:47:17;15.90;99.90
5041;DHT22;2539;52.568;13.364;2022-07-23T07:49:43;15.70;99.90
5041;DHT22;2539;52.568;13.364;2022-07-23T07:52:10;15.50;99.90
5041;DHT22;2539;52.568;13.364;2022-07-23T07:54:37;15.80;99.90
5041;DHT22;2539;52.568;13.364;2022-07-23T07:57:03;15.90;99.90
5041;DHT22;2539;52.568;13.364;2022-07-23T07:59:28;15.70;99.90
5041;DHT22;2539;52.568;13.364;2022-07-23T08:01:54;15.70;99.90
5041;DHT22;2539;52.568;13.364;2022-07-23T08:04:20;15.70;99.90
5041;DHT22;2539;52.568;13.364;2022-07-23T08:06:46;15.80;99.90
5041;DHT22;2539;52.568;13.364;2022-07-23T08:09:13;16.00;99.90
5041;DHT22;2539;52.568;13.364;2022-07-23T08:11:39;16.10;99.90
5041;DHT22;2539;52.568;13.364;2022-07-23T08:14:05;16.00;99.90
5041;DHT22;2539;52.568;13.364;2022-07-23T08:16:31;16.10;99.90
5041;DHT22;2539;52.568;13.364;2022-07-23T08:18:57;16.10;99.90
5041;DHT22;2539;52.568;13.364;2022-07-23T08:21:24;15.80;99.90
5041;DHT22;2539;52.568;13.364;2022-07-23T08:23:50;15.80;99.90
5041;DHT22;2539;52.568;13.364;2022-07-23T08:26:16;15.80;99.90
5041;DHT22;2539;52.568;13.364;2022-07-23T08:28:42;15.50;99.90
5041;DHT22;2539;52.568;13.364;2022-07-23T08:31:09;15.60;99.90
5041;DHT22;2539;52.568;13.364;2022-07-23T08:33:37;15.70;99.90
5041;DHT22;2539;52.568;13.364;2022-07-23T08:36:04;15.90;99.90
5041;DHT22;2539;52.568;13.364;2022-07-23T08:38:31;16.10;99.90
5041;DHT22;2539;52.568;13.364;2022-07-23T08:40:58;16.20;99.90
5041;DHT22;2539;52.568;13.364;2022-07-23T08:43:27;16.30;99.90
5041;DHT22;2539;52.568;13.364;2022-07-23T08:45:57;16.50;99.90
5041;DHT22;2539;52.568;13.364;2022-07-23T08:48:26;16.60;99.90
5041;DHT22;2539;52.568;13.364;2022-07-23T08:50:55;16.70;99.90
5041;DHT22;2539;52.568;13.364;2022-07-23T08:53:22;16.80;99.90
5041;DHT22;2539;52.568;13.364;2022-07-23T08:55:51;17.00;99.90
5041;DHT22;2539;52.568;13.364;2022-07-23T08:58:18;17.20;99.90
5041;DHT22;2539;52.568;13.364;2022-07-23T09:00:45;17.40;99.90
5041;DHT22;2539;52.568;13.364;2022-07-23T09:03:23;17.60;99.90
5041;DHT22;2539;52.568;13.364;2022-07-23T09:05:50;17.80;99.90
5041;DHT22;2539;52.568;13.364;2022-07-23T09:08:22;18.00;99.90
5041;DHT22;2539;52.568;13.364;2022-07-23T09:11:00;18.30;99.90
5041;DHT22;2539;52.568;13.364;2022-07-23T09:13:32;18.30;99.90
5041;DHT22;2539;52.568;13.364;2022-07-23T09:16:14;18.50;99.90
5041;DHT22;2539;52.568;13.364;2022-07-23T09:18:43;18.70;99.90
5041;DHT22;2539;52.568;13.364;2022-07-23T09:21:13;18.80;99.90
5041;DHT22;2539;52.568;13.364;2022-07-23T09:23:46;19.20;99.90
5041;DHT22;2539;52.568;13.364;2022-07-23T09:26:21;19.60;99.90
5041;DHT22;2539;52.568;13.364;2022-07-23T09:29:12;19.50;99.90
5041;DHT22;2539;52.568;13.364;2022-07-23T09:31:55;19.30;99.90
5041;DHT22;2539;52.568;13.364;2022-07-23T09:34:30;19.60;99.90
5041;DHT22;2539;52.568;13.364;2022-07-23T09:37:13;19.80;99.90
5041;DHT22;2539;52.568;13.364;2022-07-23T09:39:40;19.30;99.90
5041;DHT22;2539;52.568;13.364;2022-07-23T09:42:25;19.40;99.90
5041;DHT22;2539;52.568;13.364;2022-07-23T09:44:53;19.10;99.90
5041;DHT22;2539;52.568;13.364;2022-07-23T09:47:21;19.40;99.90
5041;DHT22;2539;52.568;13.364;2022-07-23T09:50:03;19.70;99.90
5041;DHT22;2539;52.568;13.364;2022-07-23T09:52:41;19.30;99.90
5041;DHT22;2539;52.568;13.364;2022-07-23T09:55:10;19.90;99.90
5041;DHT22;2539;52.568;13.364;2022-07-23T09:57:36;19.80;99.90
5041;DHT22;2539;52.568;13.364;2022-07-23T10:00:07;20.10;99.90
5041;DHT22;2539;52.568;13.364;2022-07-23T10:02:36;20.00;99.90
5041;DHT22;2539;52.568;13.364;2022-07-23T10:05:03;19.90;99.90
5041;DHT22;2539;52.568;13.364;2022-07-23T10:07:36;19.90;99.90
5041;DHT22;2539;52.568;13.364;2022-07-23T10:10:04;20.00;99.90
5041;DHT22;2539;52.568;13.364;2022-07-23T10:12:31;20.20;99.90
5041;DHT22;2539;52.568;13.364;2022-07-23T10:15:17;20.20;99.90
5041;DHT22;2539;52.568;13.364;2022-07-23T10:17:43;20.10;99.90
5041;DHT22;2539;52.568;13.364;2022-07-23T10:20:10;20.40;99.90
5041;DHT22;2539;52.568;13.364;2022-07-23T10:22:47;20.80;99.90
5041;DHT22;2539;52.568;13.364;2022-07-23T10:25:26;21.10;99.90
5041;DHT22;2539;52.568;13.364;2022-07-23T10:28:11;20.60;99.90
5041;DHT22;2539;52.568;13.364;2022-07-23T10:31:07;20.40;99.90
5041;DHT22;2539;52.568;13.364;2022-07-23T10:38:58;20.00;99.90
5041;DHT22;2539;52.568;13.364;2022-07-23T10:41:38;20.30;99.90
5041;DHT22;2539;52.568;13.364;2022-07-23T10:44:13;21.00;99.90
5041;DHT22;2539;52.568;13.364;2022-07-23T10:47:00;21.30;99.90
5041;DHT22;2539;52.568;13.364;2022-07-23T10:49:43;21.10;99.90
5041;DHT22;2539;52.568;13.364;2022-07-23T10:52:23;20.70;99.90
5041;DHT22;2539;52.568;13.364;2022-07-23T10:54:53;20.30;99.90
5041;DHT22;2539;52.568;13.364;2022-07-23T10:57:25;20.30;99.90
5041;DHT22;2539;52.568;13.364;2022-07-23T11:02:41;20.40;99.90
5041;DHT22;2539;52.568;13.364;2022-07-23T11:05:10;20.10;99.90
5041;DHT22;2539;52.568;13.364;2022-07-23T11:08:09;20.40;99.90
5041;DHT22;2539;52.568;13.364;2022-07-23T11:10:34;20.80;99.90
5041;DHT22;2539;52.568;13.364;2022-07-23T11:18:57;21.70;99.90
5041;DHT22;2539;52.568;13.364;2022-07-23T11:24:18;21.50;99.90
5041;DHT22;2539;52.568;13.364;2022-07-23T11:26:54;21.40;99.90
5041;DHT22;2539;52.568;13.364;2022-07-23T11:32:02;21.40;99.90
5041;DHT22;2539;52.568;13.364;2022-07-23T11:34:44;21.70;99.90
5041;DHT22;2539;52.568;13.364;2022-07-23T11:37:28;22.20;99.90
5041;DHT22;2539;52.568;13.364;2022-07-23T11:39:55;22.50;99.90
5041;DHT22;2539;52.568;13.364;2022-07-23T11:42:22;22.20;99.90
5041;DHT22;2539;52.568;13.364;2022-07-23T11:44:50;22.10;99.90
5041;DHT22;2539;52.568;13.364;2022-07-23T11:47:22;22.00;99.90
5041;DHT22;2539;52.568;13.364;2022-07-23T11:50:00;21.80;99.90
5041;DHT22;2539;52.568;13.364;2022-07-23T11:52:29;22.00;99.90
5041;DHT22;2539;52.568;13.364;2022-07-23T11:55:01;22.00;99.90
5041;DHT22;2539;52.568;13.364;2022-07-23T11:57:30;22.00;99.90
5041;DHT22;2539;52.568;13.364;2022-07-23T12:00:08;22.00;99.90
5041;DHT22;2539;52.568;13.364;2022-07-23T12:02:40;22.80;99.90
5041;DHT22;2539;52.568;13.364;2022-07-23T12:05:07;23.50;99.90
5041;DHT22;2539;52.568;13.364;2022-07-23T12:07:39;23.30;99.70
5041;DHT22;2539;52.568;13.364;2022-07-23T12:10:29;23.30;99.40
5041;DHT22;2539;52.568;13.364;2022-07-23T12:13:04;22.70;99.90
5041;DHT22;2539;52.568;13.364;2022-07-23T12:15:33;21.90;99.90
5041;DHT22;2539;52.568;13.364;2022-07-23T12:18:02;22.00;99.90
5041;DHT22;2539;52.568;13.364;2022-07-23T12:20:34;22.20;99.90
5041;DHT22;2539;52.568;13.364;2022-07-23T12:23:03;21.80;99.90
5041;DHT22;2539;52.568;13.364;2022-07-23T12:25:35;21.90;99.90
5041;DHT22;2539;52.568;13.364;2022-07-23T12:28:14;21.90;99.90
5041;DHT22;2539;52.568;13.364;2022-07-23T12:30:49;21.80;99.90
5041;DHT22;2539;52.568;13.364;2022-07-23T12:33:37;22.20;99.90
5041;DHT22;2539;52.568;13.364;2022-07-23T12:36:06;22.20;99.90
5041;DHT22;2539;52.568;13.364;2022-07-23T12:38:41;22.20;99.90
5041;DHT22;2539;52.568;13.364;2022-07-23T12:43:40;22.00;99.90
5041;DHT22;2539;52.568;13.364;2022-07-23T12:46:15;22.20;99.90
5041;DHT22;2539;52.568;13.364;2022-07-23T12:51:18;22.30;99.90
5041;DHT22;2539;52.568;13.364;2022-07-23T12:53:50;22.50;99.90
5041;DHT22;2539;52.568;13.364;2022-07-23T12:56:22;22.10;99.90
5041;DHT22;2539;52.568;13.364;2022-07-23T12:59:04;22.20;99.90
5041;DHT22;2539;52.568;13.364;2022-07-23T13:01:43;22.50;99.90
5041;DHT22;2539;52.568;13.364;2022-07-23T13:04:18;22.30;99.90
5041;DHT22;2539;52.568;13.364;2022-07-23T13:06:55;22.30;99.90
5041;DHT22;2539;52.568;13.364;2022-07-23T13:09:24;22.10;99.90
5041;DHT22;2539;52.568;13.364;2022-07-23T13:11:51;21.90;99.90
5041;DHT22;2539;52.568;13.364;2022-07-23T13:14:19;21.80;99.90
5041;DHT22;2539;52.568;13.364;2022-07-23T13:16:46;21.70;99.90
5041;DHT22;2539;52.568;13.364;2022-07-23T13:19:12;21.90;99.90
5041;DHT22;2539;52.568;13.364;2022-07-23T13:21:40;22.10;99.90
5041;DHT22;2539;52.568;13.364;2022-07-23T13:24:08;22.00;99.90
5041;DHT22;2539;52.568;13.364;2022-07-23T13:26:34;21.90;99.90
5041;DHT22;2539;52.568;13.364;2022-07-23T13:29:01;22.00;99.90
5041;DHT22;2539;52.568;13.364;2022-07-23T13:31:28;22.10;99.90
5041;DHT22;2539;52.568;13.364;2022-07-23T13:33:54;22.00;99.90
5041;DHT22;2539;52.568;13.364;2022-07-23T13:36:19;22.30;99.90
5041;DHT22;2539;52.568;13.364;2022-07-23T13:38:45;22.30;99.90
5041;DHT22;2539;52.568;13.364;2022-07-23T13:41:11;22.40;99.90
5041;DHT22;2539;52.568;13.364;2022-07-23T13:43:37;22.40;99.90
5041;DHT22;2539;52.568;13.364;2022-07-23T13:46:03;22.10;99.90
5041;DHT22;2539;52.568;13.364;2022-07-23T13:48:30;22.40;99.90
5041;DHT22;2539;52.568;13.364;2022-07-23T13:50:56;22.70;99.90
5041;DHT22;2539;52.568;13.364;2022-07-23T13:53:24;23.10;99.80
5041;DHT22;2539;52.568;13.364;2022-07-23T13:55:52;23.30;99.40
5041;DHT22;2539;52.568;13.364;2022-07-23T13:58:19;23.30;98.60
5041;DHT22;2539;52.568;13.364;2022-07-23T14:00:48;23.60;98.30
5041;DHT22;2539;52.568;13.364;2022-07-23T14:03:16;24.10;98.30
5041;DHT22;2539;52.568;13.364;2022-07-23T14:05:42;24.30;96.90
5041;DHT22;2539;52.568;13.364;2022-07-23T14:08:09;23.60;97.20
5041;DHT22;2539;52.568;13.364;2022-07-23T14:10:36;23.30;98.20
5041;DHT22;2539;52.568;13.364;2022-07-23T14:13:02;23.30;97.80
5041;DHT22;2539;52.568;13.364;2022-07-23T14:15:31;23.30;98.30
5041;DHT22;2539;52.568;13.364;2022-07-23T14:18:00;23.20;98.00
5041;DHT22;2539;52.568;13.364;2022-07-23T14:20:26;23.30;98.60
5041;DHT22;2539;52.568;13.364;2022-07-23T14:22:53;23.60;97.60
5041;DHT22;2539;52.568;13.364;2022-07-23T14:25:21;24.30;97.20
5041;DHT22;2539;52.568;13.364;2022-07-23T14:27:47;24.10;96.00
5041;DHT22;2539;52.568;13.364;2022-07-23T14:30:14;24.30;95.60
5041;DHT22;2539;52.568;13.364;2022-07-23T14:32:41;24.20;95.50
5041;DHT22;2539;52.568;13.364;2022-07-23T14:35:07;24.00;95.50
5041;DHT22;2539;52.568;13.364;2022-07-23T14:37:34;23.90;95.70
5041;DHT22;2539;52.568;13.364;2022-07-23T14:40:00;23.60;95.50
5041;DHT22;2539;52.568;13.364;2022-07-23T14:42:27;23.90;96.30
5041;DHT22;2539;52.568;13.364;2022-07-23T14:44:53;24.40;94.50
5041;DHT22;2539;52.568;13.364;2022-07-23T14:47:19;24.70;94.10
5041;DHT22;2539;52.568;13.364;2022-07-23T14:49:45;24.90;93.50
5041;DHT22;2539;52.568;13.364;2022-07-23T14:52:11;25.30;93.20
5041;DHT22;2539;52.568;13.364;2022-07-23T14:54:38;25.20;91.90
5041;DHT22;2539;52.568;13.364;2022-07-23T14:57:04;25.70;91.40
5041;DHT22;2539;52.568;13.364;2022-07-23T14:59:30;25.90;90.40
5041;DHT22;2539;52.568;13.364;2022-07-23T15:01:57;26.40;88.10
5041;DHT22;2539;52.568;13.364;2022-07-23T15:04:24;26.30;88.90
5041;DHT22;2539;52.568;13.364;2022-07-23T15:06:51;25.60;88.60
5041;DHT22;2539;52.568;13.364;2022-07-23T15:09:17;26.00;88.90
5041;DHT22;2539;52.568;13.364;2022-07-23T15:11:44;25.70;88.10
5041;DHT22;2539;52.568;13.364;2022-07-23T15:14:10;26.50;85.60
5041;DHT22;2539;52.568;13.364;2022-07-23T15:16:36;26.60;84.50
5041;DHT22;2539;52.568;13.364;2022-07-23T15:19:04;27.50;81.60
5041;DHT22;2539;52.568;13.364;2022-07-23T15:21:30;27.90;78.00
5041;DHT22;2539;52.568;13.364;2022-07-23T15:23:57;26.60;80.10
5041;DHT22;2539;52.568;13.364;2022-07-23T15:26:27;25.80;82.30
5041;DHT22;2539;52.568;13.364;2022-07-23T15:28:54;25.00;85.60
5041;DHT22;2539;52.568;13.364;2022-07-23T15:31:21;25.30;84.90
5041;DHT22;2539;52.568;13.364;2022-07-23T15:33:47;26.30;82.40
5041;DHT22;2539;52.568;13.364;2022-07-23T15:36:14;26.70;78.80
5041;DHT22;2539;52.568;13.364;2022-07-23T15:38:40;26.80;78.90
5041;DHT22;2539;52.568;13.364;2022-07-23T15:41:07;26.70;78.00
5041;DHT22;2539;52.568;13.364;2022-07-23T15:43:33;26.40;78.60
5041;DHT22;2539;52.568;13.364;2022-07-23T15:45:59;26.70;78.20
5041;DHT22;2539;52.568;13.364;2022-07-23T15:48:25;25.80;77.20
5041;DHT22;2539;52.568;13.364;2022-07-23T15:50:51;25.10;79.30
5041;DHT22;2539;52.568;13.364;2022-07-23T15:53:19;24.20;82.00
5041;DHT22;2539;52.568;13.364;2022-07-23T15:55:45;24.10;84.00
5041;DHT22;2539;52.568;13.364;2022-07-23T15:58:13;24.10;84.20
5041;DHT22;2539;52.568;13.364;2022-07-23T16:00:39;24.90;81.30
5041;DHT22;2539;52.568;13.364;2022-07-23T16:03:06;25.40;79.10
5041;DHT22;2539;52.568;13.364;2022-07-23T16:05:32;25.30;78.80
5041;DHT22;2539;52.568;13.364;2022-07-23T16:08:02;24.40;81.30
5041;DHT22;2539;52.568;13.364;2022-07-23T16:10:30;24.20;83.00
5041;DHT22;2539;52.568;13.364;2022-07-23T16:12:56;24.20;83.20
5041;DHT22;2539;52.568;13.364;2022-07-23T16:15:24;24.90;81.20